M I D A S
Marine Information and Data Acquisition System
Tripno 1651 of the Zeeleeuw from 2009-03-02 07:39:02 to 2009-03-02 18:03:57
Back to CruiseResearch ActivitiesStationsMapUnderway DataData graphs

EquipmentUnitsComment
TimeDGPSUTC
LatitudeDGPSDM.mWGS84
LongitudeDGPSDM.mWGS84
HeadingGyrodeg 
SOGDGPSknotsSpeed over ground
COGDGPSdegCourse over ground
DepthEcho soundermeters200 kHz
Missing or incorrect values are displayed as -999
Navigation data collected by the RV Zeeleeuw from 2009-03-02 07:38:28 to 2009-03-02 18:13:10
Time Latitude Longitude Heading SOG COG Depth
2009-03-02 07:39:33 51°13.674 2°55.909 109.4 2.9 290 -999
2009-03-02 07:40:33 51°13.69 2°55.824 105.6 3.4 286 -999
2009-03-02 07:41:33 51°13.697 2°55.783 123.7 0.7 299 10.7
2009-03-02 07:42:33 51°13.713 2°55.75 142.7 2.7 318 -999
2009-03-02 07:43:33 51°13.76 2°55.694 148.5 4.2 326 -999
2009-03-02 07:44:33 51°13.826 2°55.644 160.7 4.2 341 -999
2009-03-02 07:45:33 51°13.89 2°55.61 169.7 3.6 348 -999
2009-03-02 07:46:32 51°13.938 2°55.607 191.7 2.5 9 4.8
2009-03-02 07:47:33 51°13.951 2°55.605 218.6 1.1 235 9.6
2009-03-02 07:48:33 51°13.95 2°55.602 261.2 1.1 73 -999
2009-03-02 07:49:33 51°13.964 2°55.575 310 3.1 317 9.6
2009-03-02 07:50:33 51°14.031 2°55.508 329.6 5.9 330 9.6
2009-03-02 07:51:33 51°14.127 2°55.42 331.2 7.1 330 9.6
2009-03-02 07:52:33 51°14.233 2°55.305 322.2 8.1 320 9.6
2009-03-02 07:53:33 51°14.334 2°55.14 314.4 9.2 312 9.8
2009-03-02 07:54:33 51°14.435 2°54.948 311.5 9.7 310 10.2
2009-03-02 07:55:32 51°14.555 2°54.769 328.4 10.4 321 9.8
2009-03-02 07:56:33 51°14.708 2°54.61 335.6 11.4 329 9.5
2009-03-02 07:57:33 51°14.872 2°54.438 332.9 12 326 9.1
2009-03-02 07:58:33 51°15.035 2°54.26 331.3 11.8 324 7.9
2009-03-02 07:59:33 51°15.197 2°54.079 331.6 11.9 326 8.2
2009-03-02 08:00:33 51°15.363 2°53.904 332.5 12 325 9.2
2009-03-02 08:01:33 51°15.528 2°53.727 333 12 327 10.4
2009-03-02 08:02:33 51°15.699 2°53.562 336.5 12 331 10.9
2009-03-02 08:03:33 51°15.874 2°53.406 336.9 12.1 330 11.5
2009-03-02 08:04:33 51°16.05 2°53.248 336.1 12.1 332 11.3
2009-03-02 08:05:33 51°16.232 2°53.111 341.6 12.1 335 11.4
2009-03-02 08:06:33 51°16.415 2°52.977 340.5 12.2 335 11.5
2009-03-02 08:07:33 51°16.598 2°52.844 341.4 12.1 336 11.1
2009-03-02 08:08:33 51°16.781 2°52.712 340.9 12 337 9.2
2009-03-02 08:09:33 51°16.964 2°52.582 340.7 12.1 337 9.4
2009-03-02 08:10:33 51°17.148 2°52.453 340.7 12.1 336 9.3
2009-03-02 08:11:33 51°17.332 2°52.325 341.3 12 336 9.9
2009-03-02 08:12:33 51°17.514 2°52.199 342.1 11.9 337 10
2009-03-02 08:13:33 51°17.699 2°52.087 346.6 11.8 340 9.9
2009-03-02 08:14:33 51°17.886 2°51.991 348.2 11.8 343 9.8
2009-03-02 08:15:33 51°18.074 2°51.896 348.5 11.9 343 10.1
2009-03-02 08:16:33 51°18.263 2°51.804 349.2 11.9 342 10.8
2009-03-02 08:17:33 51°18.453 2°51.711 349 12 344 11.8
2009-03-02 08:18:33 51°18.647 2°51.621 350.1 12.1 344 12.9
2009-03-02 08:19:33 51°18.84 2°51.526 349.3 12.2 343 13.8
2009-03-02 08:20:33 51°19.033 2°51.429 348.5 12.2 341 14.5
2009-03-02 08:21:33 51°19.222 2°51.333 348.9 11.9 342 14.7
2009-03-02 08:22:33 51°19.41 2°51.236 347.5 11.9 342 14.5
2009-03-02 08:23:33 51°19.598 2°51.132 349.2 12 343 14
2009-03-02 08:24:33 51°19.787 2°51.026 344.8 12.1 337 11.7
2009-03-02 08:25:33 51°19.974 2°50.897 343.9 12.2 338 12.6
2009-03-02 08:26:33 51°20.162 2°50.768 340.9 12.4 334 13.7
2009-03-02 08:27:33 51°20.33 2°50.573 323.3 12.7 317 15.6
2009-03-02 08:28:33 51°20.477 2°50.33 318.2 12.7 314 18.4
2009-03-02 08:29:33 51°20.62 2°50.082 318.8 12.6 314 21.3
2009-03-02 08:30:33 51°20.767 2°49.843 321.8 12.5 317 22.5
2009-03-02 08:31:33 51°20.922 2°49.618 323.8 12.5 318 22.6
2009-03-02 08:32:33 51°21.084 2°49.405 327 12.7 321 22
2009-03-02 08:33:33 51°21.246 2°49.188 326.1 12.8 321 21.5
2009-03-02 08:34:33 51°21.415 2°48.984 329.2 12.8 324 20.2
2009-03-02 08:35:33 51°21.589 2°48.787 331 12.7 326 22.3
2009-03-02 08:36:33 51°21.769 2°48.607 333.3 12.7 330 22.9
2009-03-02 08:37:33 51°21.952 2°48.44 336.4 12.6 332 23.1
2009-03-02 08:38:33 51°22.147 2°48.346 356.4 12.1 352 23.4
2009-03-02 08:39:33 51°22.345 2°48.329 5.8 11.9 2 19.9
2009-03-02 08:40:33 51°22.54 2°48.366 14 11.8 9 15.9
2009-03-02 08:41:33 51°22.735 2°48.411 11.6 11.9 5 15.6
2009-03-02 08:42:33 51°22.934 2°48.434 6.6 12 -999 18.4
2009-03-02 08:43:33 51°23.133 2°48.435 5.4 11.9 359 19.7
2009-03-02 08:44:33 51°23.331 2°48.429 4.5 11.9 359 19.8
2009-03-02 08:45:33 51°23.529 2°48.443 9.9 11.9 6 21.5
2009-03-02 08:46:33 51°23.726 2°48.466 8.9 11.9 4 21.4
2009-03-02 08:47:33 51°23.922 2°48.482 9.1 11.7 3 21.3
2009-03-02 08:48:33 51°24.117 2°48.496 6.5 11.8 1 21.2
2009-03-02 08:49:33 51°24.316 2°48.488 4 11.9 357 20
2009-03-02 08:50:33 51°24.496 2°48.478 6.1 10.2 359 21.6
2009-03-02 08:51:33 51°24.657 2°48.481 6.7 8.7 -999 24.2
2009-03-02 08:52:33 51°24.775 2°48.477 5.9 6.4 356 24.3
2009-03-02 08:53:33 51°24.876 2°48.47 6.6 5.8 358 25.1
2009-03-02 08:54:33 51°24.96 2°48.48 21.2 4.2 14 24.5
2009-03-02 08:55:33 51°25 2°48.507 45.9 1.1 27 26.5
2009-03-02 08:56:33 51°25.007 2°48.521 69.2 0.5 67 26.3
2009-03-02 08:57:33 51°25.009 2°48.532 64.8 0.3 82 26.1
2009-03-02 08:58:33 51°25.01 2°48.536 56.4 0.1 338 26.2
2009-03-02 08:59:33 51°25.01 2°48.533 48 0.3 244 26
2009-03-02 09:00:33 51°25.008 2°48.524 38 0.4 247 26.4
2009-03-02 09:01:33 51°25.003 2°48.514 31.7 0.5 236 26.3
2009-03-02 09:02:33 51°24.998 2°48.502 27 0.6 235 26.5
2009-03-02 09:03:33 51°24.991 2°48.49 26.5 0.7 230 26.5
2009-03-02 09:04:33 51°24.98 2°48.478 32.3 0.9 210 26.6
2009-03-02 09:05:33 51°24.969 2°48.462 36.5 0.9 222 24.3
2009-03-02 09:06:33 51°24.957 2°48.446 41.7 1.1 219 25.4
2009-03-02 09:07:33 51°24.945 2°48.429 50.3 0.4 208 25.5
2009-03-02 09:08:33 51°24.981 2°48.471 37.4 5.3 31 24.7
2009-03-02 09:09:33 51°25.087 2°48.568 35.8 8.3 31 26.5
2009-03-02 09:10:33 51°25.213 2°48.691 36.3 9.5 33 26.6
2009-03-02 09:11:33 51°25.355 2°48.834 37.2 10.3 34 25.1
2009-03-02 09:12:33 51°25.51 2°48.982 34.1 11.5 27 23.1
2009-03-02 09:13:33 51°25.688 2°49.102 25.4 11.6 21 22.7
2009-03-02 09:14:33 51°25.869 2°49.208 25.6 11.6 20 23
2009-03-02 09:15:33 51°26.05 2°49.314 26 11.5 20 22.8
2009-03-02 09:16:33 51°26.231 2°49.425 26.2 11.7 22 22.6
2009-03-02 09:17:33 51°26.412 2°49.538 25.8 11.6 22 22.5
2009-03-02 09:18:33 51°26.591 2°49.649 26 11.5 21 20.2
2009-03-02 09:19:33 51°26.767 2°49.762 26.8 11.4 21 18.4
2009-03-02 09:20:33 51°26.946 2°49.873 25.4 11.6 24 18.7
2009-03-02 09:21:33 51°27.124 2°49.988 26.6 11.5 21 21.5
2009-03-02 09:22:33 51°27.301 2°50.1 26.8 11.4 21 22.5
2009-03-02 09:23:33 51°27.477 2°50.212 26.3 11.4 21 23.7
2009-03-02 09:24:33 51°27.654 2°50.325 27 11.3 23 23.8
2009-03-02 09:25:33 51°27.831 2°50.434 26 11.5 21 27.1
2009-03-02 09:26:33 51°28.007 2°50.548 26.9 11.4 22 26.9
2009-03-02 09:27:33 51°28.183 2°50.663 26.6 11.5 22 27.6
2009-03-02 09:28:33 51°28.359 2°50.779 26 11.5 23 26.7
2009-03-02 09:29:33 51°28.533 2°50.892 26.9 11.3 22 25.9
2009-03-02 09:30:33 51°28.709 2°51 26.2 11.3 21 27.2
2009-03-02 09:31:33 51°28.885 2°51.111 26.2 11.4 21 27.6
2009-03-02 09:32:33 51°29.061 2°51.221 26.3 11.4 23 29
2009-03-02 09:33:33 51°29.237 2°51.332 26.5 11.4 22 27
2009-03-02 09:34:33 51°29.412 2°51.447 26.9 11.3 23 27.8
2009-03-02 09:35:33 51°29.588 2°51.558 26.2 11.5 19 29.1
2009-03-02 09:36:33 51°29.767 2°51.668 25.4 11.4 23 30.2
2009-03-02 09:37:33 51°29.943 2°51.78 26.4 11.4 21 29.2
2009-03-02 09:38:33 51°30.12 2°51.894 26.5 11.5 21 29.9
2009-03-02 09:39:33 51°30.295 2°52.009 26.9 11.4 22 27
2009-03-02 09:40:33 51°30.472 2°52.124 26.3 11.6 20 23.9
2009-03-02 09:41:33 51°30.649 2°52.243 26.7 11.6 24 18.4
2009-03-02 09:42:33 51°30.824 2°52.362 26.7 11.4 21 19.5
2009-03-02 09:43:33 51°31 2°52.479 25.7 11.4 23 19.2
2009-03-02 09:44:33 51°31.176 2°52.599 26.7 11.4 22 19.5
2009-03-02 09:45:33 51°31.352 2°52.718 26.9 11.4 24 17.4
2009-03-02 09:46:33 51°31.527 2°52.839 26.8 11.5 22 20.5
2009-03-02 09:47:33 51°31.705 2°52.957 26.1 11.5 23 21.9
2009-03-02 09:48:33 51°31.881 2°53.077 26.5 11.4 24 17.8
2009-03-02 09:49:33 51°32.057 2°53.195 25.9 11.3 20 21.1
2009-03-02 09:50:33 51°32.229 2°53.31 26.2 11.2 22 21.8
2009-03-02 09:51:33 51°32.402 2°53.419 25.6 11.1 20 23.2
2009-03-02 09:52:33 51°32.575 2°53.528 26.7 11.2 23 25.2
2009-03-02 09:53:33 51°32.746 2°53.638 25.5 11 22 21.4
2009-03-02 09:54:33 51°32.917 2°53.747 25.8 11 24 23.7
2009-03-02 09:55:33 51°33.086 2°53.859 27 11 24 27
2009-03-02 09:56:33 51°33.256 2°53.971 26.2 11 22 26.9
2009-03-02 09:57:33 51°33.419 2°54.101 36.9 11 35 26.4
2009-03-02 09:58:33 51°33.551 2°54.3 47.5 11.1 47 26.6
2009-03-02 09:59:33 51°33.676 2°54.515 48.4 11 46 27.8
2009-03-02 10:00:33 51°33.804 2°54.726 47 10.9 48 27.7
2009-03-02 10:01:33 51°33.932 2°54.93 47.1 10.8 43 28.1
2009-03-02 10:02:33 51°34.059 2°55.135 46.9 10.9 44 30.1
2009-03-02 10:03:33 51°34.182 2°55.345 53.5 10.7 57 29.4
2009-03-02 10:04:33 51°34.25 2°55.607 76.8 11 81 29.3
2009-03-02 10:05:33 51°34.262 2°55.903 83.1 11.2 88 31.6
2009-03-02 10:06:33 51°34.273 2°56.2 83.3 11.1 88 31.6
2009-03-02 10:07:33 51°34.286 2°56.495 81.9 11.2 86 29.3
2009-03-02 10:08:33 51°34.329 2°56.777 69.8 11 68 30.1
2009-03-02 10:09:33 51°34.393 2°57.053 70.5 11 63 28.9
2009-03-02 10:10:33 51°34.449 2°57.335 72.3 11.1 69 30.8
2009-03-02 10:11:33 51°34.5 2°57.619 73.9 11 67 27.5
2009-03-02 10:12:33 51°34.549 2°57.903 70.5 11.1 79 29.1
2009-03-02 10:13:33 51°34.6 2°58.189 71.7 11.2 76 28.9
2009-03-02 10:14:33 51°34.651 2°58.475 72.7 11 74 23.7
2009-03-02 10:15:33 51°34.701 2°58.763 73.2 11.2 73 27.2
2009-03-02 10:16:33 51°34.751 2°59.05 71.2 11.1 77 24.9
2009-03-02 10:17:33 51°34.803 2°59.33 72.7 10.2 76 24.2
2009-03-02 10:18:33 51°34.846 2°59.579 72.1 9.6 76 27.7
2009-03-02 10:19:33 51°34.89 2°59.822 71.9 9.4 73 25.4
2009-03-02 10:20:33 51°34.929 3°0.068 74.4 9.4 72 25.8
2009-03-02 10:21:33 51°34.956 3°0.253 72.6 4.9 79 22.6
2009-03-02 10:22:33 51°34.966 3°0.34 63.6 2.2 74 24.7
2009-03-02 10:23:33 51°34.976 3°0.375 47.5 1.2 57 25.2
2009-03-02 10:24:33 51°34.994 3°0.423 59.1 2.7 72 25.4
2009-03-02 10:25:33 51°34.994 3°0.477 71.4 1.1 108 24.3
2009-03-02 10:26:33 51°34.989 3°0.495 55.9 0.6 127 23.5
2009-03-02 10:27:33 51°34.983 3°0.5 49.4 0.5 179 23.1
2009-03-02 10:28:33 51°34.97 3°0.494 42.5 1.1 200 23.9
2009-03-02 10:29:33 51°34.953 3°0.481 33.8 1.4 203 24.1
2009-03-02 10:30:33 51°34.932 3°0.467 31.6 1.4 201 23.6
2009-03-02 10:31:33 51°34.91 3°0.452 33.2 1.4 207 23.5
2009-03-02 10:32:33 51°34.887 3°0.436 33.5 1.4 202 23.2
2009-03-02 10:33:33 51°34.868 3°0.422 32.7 0.3 191 21.3
2009-03-02 10:34:33 51°34.89 3°0.386 326.7 4.3 297 22.8
2009-03-02 10:35:33 51°34.94 3°0.208 305.8 9.4 295 24.4
2009-03-02 10:36:33 51°35.029 2°59.952 310.5 12.1 302 27.2
2009-03-02 10:37:33 51°35.136 2°59.674 311.2 12.3 302 28.3
2009-03-02 10:38:33 51°35.247 2°59.397 312.6 12.3 304 28.4
2009-03-02 10:39:33 51°35.361 2°59.123 313.4 12.3 307 30.6
2009-03-02 10:40:33 51°35.483 2°58.862 315.7 12.3 307 29.8
2009-03-02 10:41:33 51°35.604 2°58.596 314.8 12.3 305 33.2
2009-03-02 10:42:33 51°35.718 2°58.323 313.2 12.3 304 37.2
2009-03-02 10:43:33 51°35.833 2°58.052 314.1 12.3 305 34.6
2009-03-02 10:44:33 51°35.949 2°57.781 313.6 12.4 304 33.5
2009-03-02 10:45:33 51°36.068 2°57.511 315.1 12.4 305 37.2
2009-03-02 10:46:33 51°36.184 2°57.238 313.8 12.3 304 33
2009-03-02 10:47:33 51°36.299 2°56.965 314 12.4 304 33.1
2009-03-02 10:48:33 51°36.417 2°56.694 314.1 12.4 305 34
2009-03-02 10:49:33 51°36.537 2°56.427 315.8 12.4 307 35
2009-03-02 10:50:33 51°36.666 2°56.172 318.9 12.2 311 34.5
2009-03-02 10:51:33 51°36.795 2°55.919 319 12.2 310 32.4
2009-03-02 10:52:33 51°36.921 2°55.667 318.8 12 309 22
2009-03-02 10:53:33 51°37.047 2°55.42 320.1 11.9 309 22.5
2009-03-02 10:54:33 51°37.168 2°55.168 317.5 11.9 307 21
2009-03-02 10:55:33 51°37.291 2°54.92 319.2 11.9 310 21.7
2009-03-02 10:56:33 51°37.416 2°54.672 318 12 309 22.1
2009-03-02 10:57:33 51°37.542 2°54.423 318.8 11.9 311 21.8
2009-03-02 10:58:33 51°37.671 2°54.178 317.3 12.1 309 26.7
2009-03-02 10:59:33 51°37.797 2°53.928 318.5 12.1 310 28.6
2009-03-02 11:00:33 51°37.926 2°53.681 318.9 12 310 30.7
2009-03-02 11:01:33 51°38.054 2°53.433 319 12 309 32.6
2009-03-02 11:02:33 51°38.182 2°53.187 318.9 12 310 33.4
2009-03-02 11:03:33 51°38.308 2°52.937 318.6 12.1 308 31.5
2009-03-02 11:04:33 51°38.436 2°52.686 317.8 12 309 35.9
2009-03-02 11:05:33 51°38.561 2°52.433 316.5 12 308 35.9
2009-03-02 11:06:33 51°38.684 2°52.177 318.8 12.1 309 34.3
2009-03-02 11:07:33 51°38.812 2°51.927 319.1 12.1 309 32.7
2009-03-02 11:08:33 51°38.936 2°51.671 317.3 12 309 35.3
2009-03-02 11:09:33 51°39.059 2°51.421 317.4 12 310 37.8
2009-03-02 11:10:33 51°39.188 2°51.176 319.7 12 310 38.8
2009-03-02 11:11:33 51°39.315 2°50.927 317.5 12 308 36.7
2009-03-02 11:12:33 51°39.437 2°50.674 318 11.8 310 31.5
2009-03-02 11:13:33 51°39.562 2°50.432 319.3 11.8 310 36.9
2009-03-02 11:14:33 51°39.687 2°50.189 318.9 11.9 308 35.7
2009-03-02 11:15:33 51°39.812 2°49.943 318.6 11.8 309 36.5
2009-03-02 11:16:33 51°39.934 2°49.695 318 11.8 309 37.5
2009-03-02 11:17:33 51°40.057 2°49.447 318 11.8 309 35
2009-03-02 11:18:33 51°40.18 2°49.2 319.3 11.8 308 31.1
2009-03-02 11:19:33 51°40.304 2°48.956 321.6 11.8 313 27.2
2009-03-02 11:20:33 51°40.44 2°48.727 324.1 11.8 314 23.9
2009-03-02 11:21:33 51°40.578 2°48.497 322.7 12 312 20.5
2009-03-02 11:22:33 51°40.716 2°48.264 323.3 11.9 316 26.8
2009-03-02 11:23:33 51°40.854 2°48.033 324.2 11.9 315 24.4
2009-03-02 11:24:33 51°40.994 2°47.808 323.5 12 314 27.6
2009-03-02 11:25:33 51°41.131 2°47.577 323.9 11.7 315 28.3
2009-03-02 11:26:33 51°41.271 2°47.351 323.5 11.9 316 33.3
2009-03-02 11:27:33 51°41.41 2°47.123 323.4 11.9 314 27.5
2009-03-02 11:28:33 51°41.545 2°46.892 322.3 11.9 314 36.6
2009-03-02 11:29:33 51°41.681 2°46.662 321.5 11.9 312 35.5
2009-03-02 11:30:33 51°41.815 2°46.43 322.5 11.8 311 32.5
2009-03-02 11:31:33 51°41.949 2°46.204 323 11.8 312 37.9
2009-03-02 11:32:33 51°42.086 2°45.98 322.8 11.8 315 40.7
2009-03-02 11:33:33 51°42.222 2°45.756 324.2 11.6 314 41.3
2009-03-02 11:34:33 51°42.359 2°45.533 323.4 11.7 314 40.4
2009-03-02 11:35:33 51°42.495 2°45.307 322.7 11.7 315 35.1
2009-03-02 11:36:33 51°42.63 2°45.084 323.4 11.6 313 37.7
2009-03-02 11:37:33 51°42.765 2°44.859 324.1 11.7 315 36.3
2009-03-02 11:38:33 51°42.901 2°44.635 324.2 11.8 313 37.5
2009-03-02 11:39:33 51°43.035 2°44.408 323.8 11.7 314 36.8
2009-03-02 11:40:33 51°43.171 2°44.184 322.3 11.7 314 35.7
2009-03-02 11:41:33 51°43.305 2°43.958 323.7 11.7 314 37
2009-03-02 11:42:33 51°43.44 2°43.733 323.8 11.6 314 34.7
2009-03-02 11:43:33 51°43.576 2°43.512 324.7 11.7 314 39.7
2009-03-02 11:44:33 51°43.713 2°43.289 323.2 11.7 315 36.8
2009-03-02 11:45:33 51°43.848 2°43.064 323.8 11.6 315 36.6
2009-03-02 11:46:33 51°43.982 2°42.837 321.9 11.6 314 38.4
2009-03-02 11:47:33 51°44.113 2°42.606 323.5 11.7 313 40.3
2009-03-02 11:48:33 51°44.255 2°42.396 326.7 11.4 322 42.2
2009-03-02 11:49:33 51°44.414 2°42.236 339.7 11.2 331 37.3
2009-03-02 11:50:33 51°44.577 2°42.093 340 11.2 331 37.9
2009-03-02 11:51:33 51°44.738 2°41.946 340.3 11.2 329 37.1
2009-03-02 11:52:33 51°44.886 2°41.844 0.1 7.7 5 41.9
2009-03-02 11:53:33 51°44.975 2°41.942 42.1 5.4 43 39.4
2009-03-02 11:54:33 51°45.016 2°41.979 16.5 1.1 14 40.9
2009-03-02 11:55:33 51°45.017 2°41.982 25.8 0.3 180 40.5
2009-03-02 11:56:33 51°45.006 2°41.979 19.7 1 197 40.5
2009-03-02 11:57:33 51°44.986 2°41.969 13.5 1.5 196 40.7
2009-03-02 11:58:33 51°44.961 2°41.957 19.2 1.7 194 39.2
2009-03-02 11:59:33 51°44.932 2°41.944 25.3 1.9 196 38.1
2009-03-02 12:00:33 51°44.903 2°41.93 31.9 1.9 195 37.5
2009-03-02 12:01:33 51°44.874 2°41.918 39.9 1.7 194 39.8
2009-03-02 12:02:33 51°44.847 2°41.906 41.6 1.8 197 41.5
2009-03-02 12:03:33 51°44.823 2°41.898 37.9 0.8 174 40.7
2009-03-02 12:04:33 51°44.831 2°41.887 343.7 2.3 303 40.8
2009-03-02 12:05:33 51°44.821 2°41.78 256 5.8 237 39.6
2009-03-02 12:06:33 51°44.733 2°41.638 238.6 9.1 230 38.5
2009-03-02 12:07:33 51°44.616 2°41.415 232.6 12.4 231 37
2009-03-02 12:08:33 51°44.472 2°41.141 233.1 13.6 231 40.6
2009-03-02 12:09:33 51°44.326 2°40.861 233 13.7 230 37.4
2009-03-02 12:10:33 51°44.159 2°40.611 221 13.7 219 42.5
2009-03-02 12:11:33 51°43.981 2°40.379 221.2 13.8 221 41.1
2009-03-02 12:12:33 51°43.81 2°40.137 223.7 13.6 220 36.3
2009-03-02 12:13:33 51°43.639 2°39.893 223.6 13.8 220 39.9
2009-03-02 12:14:33 51°43.473 2°39.639 227.8 13.8 224 42
2009-03-02 12:15:33 51°43.311 2°39.38 226.5 13.7 229 36.9
2009-03-02 12:16:33 51°43.149 2°39.122 228.3 13.6 224 41
2009-03-02 12:17:33 51°42.99 2°38.864 227.2 13.7 225 37.9
2009-03-02 12:18:33 51°42.828 2°38.606 227.9 13.6 222 39.8
2009-03-02 12:19:33 51°42.669 2°38.349 228 13.6 224 36.2
2009-03-02 12:20:33 51°42.512 2°38.086 228.2 13.6 227 37.7
2009-03-02 12:21:33 51°42.331 2°37.875 207.5 13.7 208 36.4
2009-03-02 12:22:33 51°42.125 2°37.717 204.4 13.7 206 34.2
2009-03-02 12:23:33 51°41.921 2°37.557 204.5 13.7 208 36.8
2009-03-02 12:24:33 51°41.715 2°37.395 205.4 13.7 210 37.6
2009-03-02 12:25:33 51°41.531 2°37.184 221.6 13.6 220 34.7
2009-03-02 12:26:33 51°41.378 2°36.922 230 13.5 228 31.1
2009-03-02 12:27:33 51°41.225 2°36.653 229.4 13.6 228 29.2
2009-03-02 12:28:33 51°41.068 2°36.388 227.8 13.7 228 22.8
2009-03-02 12:29:33 51°40.914 2°36.12 227.5 13.6 229 21.3
2009-03-02 12:30:33 51°40.758 2°35.854 228 13.6 225 27.1
2009-03-02 12:31:33 51°40.602 2°35.589 227.4 13.5 228 30.1
2009-03-02 12:32:33 51°40.445 2°35.326 228 13.6 225 29.8
2009-03-02 12:33:34 51°40.286 2°35.06 228 13.6 225 32.2
2009-03-02 12:34:34 51°40.132 2°34.797 227.4 13.4 230 36.4
2009-03-02 12:35:34 51°39.99 2°34.528 234.3 12.1 232 37.8
2009-03-02 12:36:34 51°39.863 2°34.254 236.7 13.3 235 39.1
2009-03-02 12:37:34 51°39.734 2°33.965 236.9 13.3 232 42.8
2009-03-02 12:38:34 51°39.61 2°33.672 240.2 13.4 235 42
2009-03-02 12:39:34 51°39.488 2°33.381 239.9 12.5 236 42.3
2009-03-02 12:40:34 51°39.381 2°33.111 243.3 11.8 240 41.9
2009-03-02 12:41:34 51°39.284 2°32.848 244.3 10.6 239 40.9
2009-03-02 12:42:34 51°39.197 2°32.622 244.1 9.3 238 40.3
2009-03-02 12:43:34 51°39.122 2°32.43 243.8 7.4 237 42.3
2009-03-02 12:44:34 51°39.065 2°32.307 242.8 4.5 229 39.8
2009-03-02 12:45:34 51°39.031 2°32.265 235.5 1.1 182 42
2009-03-02 12:46:34 51°39.02 2°32.274 220.7 0.7 162 29.8
2009-03-02 12:47:34 51°39.008 2°32.275 209.1 0.7 183 27.8
2009-03-02 12:48:34 51°38.995 2°32.271 202.9 0.9 199 34.5
2009-03-02 12:49:34 51°38.981 2°32.263 198.4 1 203 39.1
2009-03-02 12:50:34 51°38.966 2°32.253 190.6 0.9 207 39.9
2009-03-02 12:51:34 51°38.95 2°32.243 181.2 1.1 201 42.4
2009-03-02 12:52:34 51°38.945 2°32.231 173.1 0.8 314 -999
2009-03-02 12:53:34 51°38.965 2°32.211 167.5 1.8 332 41.8
2009-03-02 12:54:34 51°38.995 2°32.18 158.6 2.6 322 -999
2009-03-02 12:55:34 51°39 2°32.155 136.7 1.6 171 40.7
2009-03-02 12:56:34 51°38.985 2°32.205 57.4 2.1 72 40.4
2009-03-02 12:57:34 51°38.998 2°32.25 51.3 1.7 67 42.1
2009-03-02 12:58:34 51°39.012 2°32.284 37.2 1.1 58 37.9
2009-03-02 12:59:34 51°39.016 2°32.301 33.3 0.5 89 42.5
2009-03-02 13:00:34 51°39.012 2°32.307 24.5 0.5 161 43
2009-03-02 13:01:34 51°39.002 2°32.309 20.4 0.6 176 42.9
2009-03-02 13:02:34 51°38.997 2°32.309 358.9 0.3 219 43
2009-03-02 13:03:34 51°39.003 2°32.291 336 1.6 311 42.2
2009-03-02 13:04:34 51°39.027 2°32.262 354.3 1.2 335 30.7
2009-03-02 13:05:34 51°39.037 2°32.252 358.6 0.4 309 41
2009-03-02 13:06:34 51°39.037 2°32.245 355.3 0.4 235 41.3
2009-03-02 13:07:34 51°39.032 2°32.238 353.9 0.3 232 41.7
2009-03-02 13:08:34 51°39.036 2°32.24 25 0.8 46 41.9
2009-03-02 13:09:34 51°39.042 2°32.281 63.2 2.3 89 40.6
2009-03-02 13:10:34 51°39.028 2°32.329 90 1.3 139 42.6
2009-03-02 13:11:34 51°39.01 2°32.328 75.2 1.2 179 43.6
2009-03-02 13:12:34 51°38.991 2°32.33 70.2 1.1 173 41.9
2009-03-02 13:13:34 51°38.974 2°32.335 60 1.2 168 42.1
2009-03-02 13:14:34 51°38.956 2°32.343 53.3 1.1 163 41.7
2009-03-02 13:15:34 51°38.94 2°32.349 47 1 165 42.1
2009-03-02 13:16:34 51°38.925 2°32.355 39.6 0.9 166 41.9
2009-03-02 13:17:33 51°38.916 2°32.362 21.7 0.4 48 41.7
2009-03-02 13:18:34 51°38.942 2°32.33 317.3 4.3 300 42.4
2009-03-02 13:19:33 51°39.009 2°32.128 306.2 11.2 299 41
2009-03-02 13:20:33 51°39.092 2°31.847 300 11.8 293 37.7
2009-03-02 13:21:34 51°39.172 2°31.554 299.7 11.8 293 37.7
2009-03-02 13:22:33 51°39.252 2°31.271 299.9 11.8 296 37.4
2009-03-02 13:23:34 51°39.34 2°30.984 301.6 11.7 298 36.5
2009-03-02 13:24:33 51°39.43 2°30.711 303.4 11.8 298 35.1
2009-03-02 13:25:34 51°39.523 2°30.428 303.4 11.8 297 37.6
2009-03-02 13:26:33 51°39.612 2°30.153 301.8 11.8 298 36.5
2009-03-02 13:27:33 51°39.703 2°29.873 302.7 11.7 300 36.1
2009-03-02 13:28:34 51°39.796 2°29.59 302.5 11.7 297 37.2
2009-03-02 13:29:33 51°39.885 2°29.316 303.7 11.7 298 35.7
2009-03-02 13:30:34 51°39.976 2°29.032 300.6 11.8 295 31.4
2009-03-02 13:31:33 51°40.056 2°28.748 299.9 11.8 296 38.4
2009-03-02 13:32:34 51°40.143 2°28.457 301.1 11.9 295 38.8
2009-03-02 13:33:33 51°40.227 2°28.175 300.6 11.9 297 38.4
2009-03-02 13:34:34 51°40.314 2°27.885 301 11.8 294 35.2
2009-03-02 13:35:33 51°40.398 2°27.605 300.4 11.8 295 38.9
2009-03-02 13:36:33 51°40.485 2°27.321 300.1 11.8 297 40.4
2009-03-02 13:37:34 51°40.566 2°27.026 297.7 11.9 292 39.6
2009-03-02 13:38:33 51°40.641 2°26.737 297.4 11.9 292 39.4
2009-03-02 13:39:34 51°40.717 2°26.436 297.3 11.9 292 40.7
2009-03-02 13:40:33 51°40.785 2°26.145 295.5 11.4 291 40.6
2009-03-02 13:41:34 51°40.848 2°25.866 293.5 10.8 289 42.7
2009-03-02 13:42:33 51°40.908 2°25.608 294.9 9.7 291 42.6
2009-03-02 13:43:34 51°40.957 2°25.383 295.4 7.7 290 43.2
2009-03-02 13:44:33 51°40.982 2°25.245 288.4 3.9 277 43.6
2009-03-02 13:45:33 51°40.991 2°25.166 310.2 2.2 303 42.6
2009-03-02 13:46:34 51°41.001 2°25.144 323.1 0.5 306 43.2
2009-03-02 13:47:33 51°41.006 2°25.137 323.8 0.2 315 43.3
2009-03-02 13:48:34 51°41.006 2°25.137 318.5 0.2 141 43.4
2009-03-02 13:49:33 51°41.002 2°25.144 316.8 0.4 127 43.4
2009-03-02 13:50:34 51°40.997 2°25.157 324.9 0.6 124 42.6
2009-03-02 13:51:33 51°40.99 2°25.171 334 0.8 135 42.6
2009-03-02 13:52:34 51°40.98 2°25.187 341.4 0.9 136 42.7
2009-03-02 13:53:34 51°40.969 2°25.203 350.6 0.9 143 41
2009-03-02 13:54:33 51°40.973 2°25.218 1.5 2.2 11 40.8
2009-03-02 13:55:34 51°41.052 2°25.194 340.1 7.4 336 41.5
2009-03-02 13:56:33 51°41.185 2°25.163 352.6 8.3 350 42.7
2009-03-02 13:57:34 51°41.298 2°25.102 344.1 5.6 344 40.7
2009-03-02 13:58:33 51°41.366 2°25.072 341.9 3.1 341 39.9
2009-03-02 13:59:34 51°41.394 2°25.055 327.3 0.9 336 40.9
2009-03-02 14:00:33 51°41.401 2°25.048 311.6 0.1 14 40
2009-03-02 14:01:34 51°41.393 2°25.067 320.3 1.3 134 5.3
2009-03-02 14:02:34 51°41.379 2°25.093 329.9 1.2 131 40.4
2009-03-02 14:03:33 51°41.369 2°25.116 341.9 0.5 91 40.3
2009-03-02 14:04:34 51°41.381 2°25.113 313.6 1.1 322 40.5
2009-03-02 14:05:33 51°41.388 2°25.079 273.1 1.3 261 39.9
2009-03-02 14:06:34 51°41.381 2°25.056 257.1 0.7 231 41.6
2009-03-02 14:07:33 51°41.374 2°25.048 259.3 0.4 181 41.5
2009-03-02 14:08:34 51°41.37 2°25.061 262.8 0.6 112 41.5
2009-03-02 14:09:34 51°41.365 2°25.078 263.6 0.7 102 40.2
2009-03-02 14:10:34 51°41.36 2°25.083 260.7 0.7 232 38
2009-03-02 14:11:34 51°41.352 2°25.064 254.2 0.7 229 38.8
2009-03-02 14:12:34 51°41.346 2°25.055 261.8 0.3 218 38
2009-03-02 14:13:34 51°41.343 2°25.063 270.1 0.8 103 41.1
2009-03-02 14:14:34 51°41.341 2°25.075 290 0.6 95 41.4
2009-03-02 14:15:34 51°41.34 2°25.092 306.4 0.7 94 41.7
2009-03-02 14:16:33 51°41.346 2°25.1 322.9 1.1 346 41.8
2009-03-02 14:17:34 51°41.364 2°25.081 299.7 0.9 319 39.1
2009-03-02 14:18:34 51°41.373 2°25.07 299.8 0.6 338 41.3
2009-03-02 14:19:34 51°41.381 2°25.07 303.6 0.5 11 41.8
2009-03-02 14:20:34 51°41.388 2°25.076 310.7 0.5 42 40.6
2009-03-02 14:21:33 51°41.394 2°25.086 315.2 0.7 50 40.5
2009-03-02 14:22:34 51°41.403 2°25.098 313.2 0.7 40 41.7
2009-03-02 14:23:33 51°41.416 2°25.093 294.8 1.4 308 41.3
2009-03-02 14:24:34 51°41.404 2°25.044 226 2.9 209 39.2
2009-03-02 14:25:34 51°41.312 2°25.027 193.6 7.9 193 37.1
2009-03-02 14:26:34 51°41.165 2°24.931 202.1 11 197 39.6
2009-03-02 14:27:34 51°40.971 2°24.906 179 11.9 180 43.8
2009-03-02 14:28:34 51°40.771 2°24.927 178 12 177 44
2009-03-02 14:29:34 51°40.572 2°24.948 179.8 12 176 42.2
2009-03-02 14:30:34 51°40.376 2°25.006 167.2 12.2 164 41.6
2009-03-02 14:31:34 51°40.188 2°25.125 155.3 12.2 153 44.2
2009-03-02 14:32:33 51°40.017 2°25.291 151.3 12.3 149 43.3
2009-03-02 14:33:34 51°39.838 2°25.462 153.3 12.4 149 35.5
2009-03-02 14:34:34 51°39.659 2°25.623 152.7 12.4 149 40.5
2009-03-02 14:35:34 51°39.491 2°25.812 142.7 12.4 141 38.9
2009-03-02 14:36:34 51°39.331 2°26.023 143.5 12.4 140 39.5
2009-03-02 14:37:33 51°39.176 2°26.232 143.4 12.5 139 38.2
2009-03-02 14:38:34 51°39.015 2°26.448 143.2 12.4 144 41
2009-03-02 14:39:34 51°38.855 2°26.657 143.9 12.4 142 40.8
2009-03-02 14:40:34 51°38.694 2°26.864 144.8 12.4 142 41.3
2009-03-02 14:41:34 51°38.538 2°27.079 142.3 12.2 140 37.7
2009-03-02 14:42:34 51°38.382 2°27.29 144.8 12.4 140 32.9
2009-03-02 14:43:34 51°38.224 2°27.503 143.5 12.3 142 39.7
2009-03-02 14:44:34 51°38.067 2°27.716 143.7 12.3 141 39.5
2009-03-02 14:45:34 51°37.902 2°27.905 152.5 12.1 148 37.8
2009-03-02 14:46:34 51°37.721 2°28.043 162.7 12.1 157 37.1
2009-03-02 14:47:34 51°37.535 2°28.153 165 11.9 165 37.8
2009-03-02 14:48:34 51°37.342 2°28.231 172.1 11.8 171 36.6
2009-03-02 14:49:34 51°37.151 2°28.249 184.7 11.5 182 38.3
2009-03-02 14:50:34 51°36.958 2°28.238 185.6 11.6 181 38.5
2009-03-02 14:51:34 51°36.774 2°28.17 200.2 11.4 197 38.7
2009-03-02 14:52:34 51°36.604 2°28.052 209.1 11.1 205 38.4
2009-03-02 14:53:34 51°36.437 2°27.925 207.6 11.1 206 38.8
2009-03-02 14:54:34 51°36.271 2°27.798 209.1 11.1 204 38.7
2009-03-02 14:55:34 51°36.104 2°27.672 206.3 11.1 204 38.5
2009-03-02 14:56:34 51°35.936 2°27.551 206.3 11.2 202 38.4
2009-03-02 14:57:34 51°35.766 2°27.432 206 11 202 36.2
2009-03-02 14:58:34 51°35.597 2°27.309 207 11.1 204 38
2009-03-02 14:59:34 51°35.43 2°27.191 205.8 11.1 203 37.3
2009-03-02 15:00:34 51°35.259 2°27.072 206.1 11.2 204 38.2
2009-03-02 15:01:34 51°35.09 2°26.954 206.2 11.2 200 38.9
2009-03-02 15:02:34 51°34.919 2°26.836 206.7 11.2 203 39.4
2009-03-02 15:03:34 51°34.749 2°26.719 205.4 11.1 202 36.7
2009-03-02 15:04:34 51°34.58 2°26.6 206.9 11.2 202 37.1
2009-03-02 15:05:34 51°34.411 2°26.479 206.7 11.1 205 38.5
2009-03-02 15:06:34 51°34.242 2°26.356 206 11.1 204 38.4
2009-03-02 15:07:34 51°34.073 2°26.233 207.8 11.1 205 38.6
2009-03-02 15:08:34 51°33.904 2°26.107 206.9 11.3 204 36.2
2009-03-02 15:09:34 51°33.733 2°25.987 204.8 11.2 204 37.7
2009-03-02 15:10:34 51°33.563 2°25.869 204.6 11.2 203 35.9
2009-03-02 15:11:34 51°33.393 2°25.747 207.3 11.3 205 37.5
2009-03-02 15:12:34 51°33.221 2°25.627 205.2 11.2 202 39
2009-03-02 15:13:33 51°33.054 2°25.506 205.4 11.1 206 38.9
2009-03-02 15:14:34 51°32.882 2°25.377 206.9 11.2 207 38.7
2009-03-02 15:15:34 51°32.713 2°25.254 205.8 11.1 203 38.8
2009-03-02 15:16:34 51°32.544 2°25.137 205.1 10.9 205 38.5
2009-03-02 15:17:34 51°32.376 2°25.022 205 11 204 38.8
2009-03-02 15:18:34 51°32.207 2°24.909 205.3 11 203 38.8
2009-03-02 15:19:34 51°32.043 2°24.791 206.7 10.8 204 38
2009-03-02 15:20:34 51°31.879 2°24.675 205.3 10.8 204 38.2
2009-03-02 15:21:34 51°31.714 2°24.561 207.4 10.8 204 36.3
2009-03-02 15:22:34 51°31.55 2°24.448 205.5 10.7 203 39.3
2009-03-02 15:23:34 51°31.384 2°24.339 205.3 10.8 203 39.4
2009-03-02 15:24:34 51°31.22 2°24.228 208.1 10.7 204 39.2
2009-03-02 15:25:34 51°31.059 2°24.11 207.4 10.7 204 37.2
2009-03-02 15:26:34 51°30.896 2°23.998 206.7 10.6 204 39.6
2009-03-02 15:27:34 51°30.734 2°23.888 205.1 10.6 203 39.1
2009-03-02 15:28:34 51°30.569 2°23.782 205.6 10.6 200 38.7
2009-03-02 15:29:34 51°30.406 2°23.679 204.9 10.6 200 39.5
2009-03-02 15:30:34 51°30.242 2°23.575 204.8 10.5 202 36.9
2009-03-02 15:31:34 51°30.079 2°23.471 205.2 10.6 203 38
2009-03-02 15:32:34 51°29.918 2°23.365 205.8 10.4 203 41
2009-03-02 15:33:34 51°29.758 2°23.256 207.7 10.5 207 40.5
2009-03-02 15:34:34 51°29.6 2°23.139 211.1 10.2 210 36.9
2009-03-02 15:35:34 51°29.455 2°22.994 214.7 10.2 218 40.2
2009-03-02 15:36:34 51°29.322 2°22.824 221.1 10.3 220 40
2009-03-02 15:37:34 51°29.188 2°22.651 221.2 10.4 217 40.1
2009-03-02 15:38:34 51°29.053 2°22.482 219.3 10.4 218 40.1
2009-03-02 15:39:34 51°28.916 2°22.315 219 10.3 217 35.3
2009-03-02 15:40:34 51°28.781 2°22.146 218.6 10.3 219 38.3
2009-03-02 15:41:34 51°28.644 2°21.978 218.4 10.4 217 36.2
2009-03-02 15:42:34 51°28.507 2°21.814 218.5 10.3 218 37.6
2009-03-02 15:43:34 51°28.381 2°21.625 225.9 10.4 225 37.9
2009-03-02 15:44:34 51°28.277 2°21.444 228.8 8.1 229 33.9
2009-03-02 15:45:34 51°28.185 2°21.302 223.6 7.6 222 37.5
2009-03-02 15:46:34 51°28.104 2°21.185 222.9 4.9 221 34
2009-03-02 15:47:34 51°28.054 2°21.117 222.9 2.9 220 31.3
2009-03-02 15:48:34 51°28.032 2°21.093 217.7 0.6 175 34.8
2009-03-02 15:49:34 51°28.021 2°21.087 233.6 0.3 276 33.2
2009-03-02 15:50:34 51°28.031 2°21.087 259 1.1 12 33.9
2009-03-02 15:51:34 51°28.052 2°21.108 288 1.8 44 34.5
2009-03-02 15:52:34 51°28.073 2°21.15 315.4 2.1 53 34.2
2009-03-02 15:53:34 51°28.092 2°21.192 333 2 54 36.7
2009-03-02 15:54:34 51°28.11 2°21.235 338.2 1.9 55 32.4
2009-03-02 15:55:34 51°28.13 2°21.279 339.8 2 56 32.9
2009-03-02 15:56:34 51°28.152 2°21.321 344.2 2.5 34 35.7
2009-03-02 15:57:34 51°28.21 2°21.39 48.3 5.7 54 33.9
2009-03-02 15:58:34 51°28.209 2°21.579 116.1 9 107 35
2009-03-02 15:59:34 51°28.131 2°21.831 127.8 11.9 121 30.9
2009-03-02 16:00:34 51°28.026 2°22.117 128.4 12.5 120 30.8
2009-03-02 16:01:34 51°27.923 2°22.408 125.7 12.6 117 24.2
2009-03-02 16:02:34 51°27.828 2°22.708 127.1 12.7 117 29.9
2009-03-02 16:03:34 51°27.736 2°23.015 124.6 12.9 115 27.9
2009-03-02 16:04:34 51°27.642 2°23.322 126.4 13 116 27.7
2009-03-02 16:05:34 51°27.53 2°23.61 132.6 12.7 124 20.4
2009-03-02 16:06:34 51°27.413 2°23.893 130.7 12.9 122 29.8
2009-03-02 16:07:34 51°27.294 2°24.175 133.4 12.6 124 35.3
2009-03-02 16:08:34 51°27.178 2°24.452 131.2 12.6 123 37.6
2009-03-02 16:09:34 51°27.069 2°24.739 130.6 12.4 124 37.8
2009-03-02 16:10:34 51°26.957 2°25.022 131.1 12.6 121 37.7
2009-03-02 16:11:34 51°26.849 2°25.311 131.8 12.6 121 37.1
2009-03-02 16:12:34 51°26.739 2°25.597 131.3 12.5 123 36.3
2009-03-02 16:13:34 51°26.629 2°25.883 131 12.5 122 32.1
2009-03-02 16:14:34 51°26.516 2°26.164 131.9 12.7 121 27.3
2009-03-02 16:15:34 51°26.402 2°26.449 131.1 12.6 122 32.8
2009-03-02 16:16:34 51°26.29 2°26.732 132.1 12.6 123 37.3
2009-03-02 16:17:34 51°26.178 2°27.014 131 12.5 123 37.2
2009-03-02 16:18:34 51°26.071 2°27.303 129.4 12.5 120 36.9
2009-03-02 16:19:34 51°25.965 2°27.592 130.7 12.5 122 36.6
2009-03-02 16:20:34 51°25.858 2°27.88 131.5 12.6 121 36.3
2009-03-02 16:21:34 51°25.748 2°28.165 131.1 12.8 120 34.9
2009-03-02 16:22:34 51°25.635 2°28.448 132.7 12.6 123 22.2
2009-03-02 16:23:34 51°25.521 2°28.733 132.2 13 123 14.3
2009-03-02 16:24:34 51°25.403 2°29.026 130.2 13 123 17.5
2009-03-02 16:25:34 51°25.286 2°29.315 132.5 12.8 124 31.3
2009-03-02 16:26:34 51°25.168 2°29.599 130 12.8 121 34.7
2009-03-02 16:27:34 51°25.054 2°29.883 130.9 12.7 122 35.1
2009-03-02 16:28:34 51°24.941 2°30.17 130.9 12.7 121 36.3
2009-03-02 16:29:34 51°24.832 2°30.461 130 12.7 122 36.8
2009-03-02 16:30:34 51°24.718 2°30.747 134 12.8 123 36.6
2009-03-02 16:31:34 51°24.598 2°31.026 135.7 12.7 125 36.8
2009-03-02 16:32:34 51°24.48 2°31.304 134.6 12.7 123 35.7
2009-03-02 16:33:34 51°24.368 2°31.59 131 12.8 122 33.6
2009-03-02 16:34:34 51°24.256 2°31.88 133.2 12.8 122 31.1
2009-03-02 16:35:34 51°24.14 2°32.171 133.1 12.9 123 24.9
2009-03-02 16:36:34 51°24.023 2°32.466 133.1 13.3 122 18.9
2009-03-02 16:37:34 51°23.898 2°32.75 138.5 12.8 131 29.2
2009-03-02 16:38:34 51°23.749 2°32.982 150.3 12.5 138 32.9
2009-03-02 16:39:34 51°23.593 2°33.194 153.6 12.2 145 32.6
2009-03-02 16:40:34 51°23.421 2°33.34 168.6 11.4 160 33.9
2009-03-02 16:41:34 51°23.243 2°33.434 173.5 11 166 33.9
2009-03-02 16:42:34 51°23.063 2°33.502 176.6 11.2 166 34.2
2009-03-02 16:43:34 51°22.881 2°33.562 176.9 11.3 169 34.5
2009-03-02 16:44:34 51°22.694 2°33.611 176.8 11.4 170 34.2
2009-03-02 16:45:34 51°22.508 2°33.664 176.5 11.4 168 34.2
2009-03-02 16:46:34 51°22.323 2°33.738 167.4 11.5 160 32.1
2009-03-02 16:47:34 51°22.171 2°33.931 137.7 12.2 134 26.7
2009-03-02 16:48:34 51°22.041 2°34.188 135.7 12.4 129 29.2
2009-03-02 16:49:34 51°21.915 2°34.45 135.1 12.4 128 32.1
2009-03-02 16:50:34 51°21.789 2°34.713 133.5 12.6 125 31.7
2009-03-02 16:51:34 51°21.666 2°34.981 134.7 12.5 124 33.1
2009-03-02 16:52:34 51°21.544 2°35.247 134.4 12.4 128 34.3
2009-03-02 16:53:34 51°21.424 2°35.518 135.3 12.5 127 33.2
2009-03-02 16:54:34 51°21.299 2°35.784 134.8 12.6 128 35.4
2009-03-02 16:55:34 51°21.172 2°36.052 136.2 12.7 124 34.9
2009-03-02 16:56:34 51°21.048 2°36.323 134.8 12.7 125 29.7
2009-03-02 16:57:34 51°20.924 2°36.593 134.8 12.6 126 26.8
2009-03-02 16:58:34 51°20.795 2°36.857 136.5 12.5 129 23.8
2009-03-02 16:59:34 51°20.666 2°37.118 135.3 12.4 128 25
2009-03-02 17:00:34 51°20.537 2°37.377 136.2 12.4 129 25.8
2009-03-02 17:01:34 51°20.407 2°37.632 135.9 12.4 131 25.2
2009-03-02 17:02:34 51°20.275 2°37.889 137.3 12.4 130 24.6
2009-03-02 17:03:34 51°20.141 2°38.14 136.5 12.4 130 26.5
2009-03-02 17:04:34 51°20.011 2°38.395 133.6 12.4 130 25.7
2009-03-02 17:05:34 51°19.878 2°38.65 135.4 12.5 130 26.2
2009-03-02 17:06:34 51°19.748 2°38.899 135.4 12.1 131 28
2009-03-02 17:07:34 51°19.621 2°39.148 135.8 12 130 30.6
2009-03-02 17:08:34 51°19.491 2°39.39 137.1 12.1 132 32.2
2009-03-02 17:09:34 51°19.362 2°39.642 134.7 12.4 126 30.6
2009-03-02 17:10:34 51°19.242 2°39.903 135.6 12.3 126 26.9
2009-03-02 17:11:34 51°19.121 2°40.157 135 12 129 24.3
2009-03-02 17:12:34 51°19.001 2°40.419 135.4 12.3 126 22.3
2009-03-02 17:13:34 51°18.879 2°40.683 136.1 12.3 127 19.2
2009-03-02 17:14:34 51°18.753 2°40.949 134.4 12.5 129 19.7
2009-03-02 17:15:34 51°18.623 2°41.205 134.4 12.4 130 21.4
2009-03-02 17:16:34 51°18.493 2°41.459 135.1 12.4 128 24.2
2009-03-02 17:17:34 51°18.363 2°41.708 135.2 12.1 132 25.2
2009-03-02 17:18:34 51°18.233 2°41.957 136.2 12.1 132 26.1
2009-03-02 17:19:34 51°18.1 2°42.207 136.6 12.4 131 26.5
2009-03-02 17:20:34 51°17.966 2°42.459 135.6 12.4 130 26.4
2009-03-02 17:21:34 51°17.835 2°42.714 135.7 12.5 130 25.4
2009-03-02 17:22:34 51°17.706 2°42.971 135.6 12.1 129 19.3
2009-03-02 17:23:34 51°17.581 2°43.226 135.4 12.2 128 12
2009-03-02 17:24:34 51°17.456 2°43.48 133.9 12.1 130 15.1
2009-03-02 17:25:34 51°17.327 2°43.725 135.8 12 128 17.6
2009-03-02 17:26:34 51°17.196 2°43.966 134.1 12.1 131 17.9
2009-03-02 17:27:34 51°17.073 2°44.221 131 12.1 126 18
2009-03-02 17:28:34 51°16.957 2°44.488 128.5 12.1 124 17.6
2009-03-02 17:29:34 51°16.845 2°44.759 129.3 12.2 124 15.1
2009-03-02 17:30:34 51°16.731 2°45.023 132.4 12.1 126 13.5
2009-03-02 17:31:34 51°16.612 2°45.28 132 12.1 126 12.8
2009-03-02 17:32:34 51°16.496 2°45.54 131.1 12.1 122 13
2009-03-02 17:33:34 51°16.393 2°45.816 125.1 12.1 121 12.2
2009-03-02 17:34:34 51°16.292 2°46.093 125.7 12.1 121 12.2
2009-03-02 17:35:34 51°16.197 2°46.382 123.8 12.4 118 13.4
2009-03-02 17:36:34 51°16.119 2°46.694 115.5 12.8 109 15.7
2009-03-02 17:37:34 51°16.048 2°47.014 116 12.8 111 17.6
2009-03-02 17:38:34 51°15.966 2°47.329 117.7 12.8 113 18.6
2009-03-02 17:39:34 51°15.885 2°47.64 116.7 12.7 110 18
2009-03-02 17:40:34 51°15.81 2°47.954 116 12.6 112 16.4
2009-03-02 17:41:34 51°15.742 2°48.266 107.9 12.5 101 14.2
2009-03-02 17:42:34 51°15.716 2°48.595 98 12.6 94 13.1
2009-03-02 17:43:34 51°15.695 2°48.929 99.5 12.6 96 12.6
2009-03-02 17:44:34 51°15.671 2°49.263 103.1 12.6 99 12.9
2009-03-02 17:45:34 51°15.633 2°49.594 103.4 12.7 99 14.6
2009-03-02 17:46:34 51°15.601 2°49.926 102.2 12.7 97 15.1
2009-03-02 17:47:34 51°15.572 2°50.259 101.7 12.6 98 14.9
2009-03-02 17:48:34 51°15.545 2°50.589 102 12.5 99 14.8
2009-03-02 17:49:34 51°15.502 2°50.913 109 12.5 103 14.8
2009-03-02 17:50:34 51°15.441 2°51.23 110.8 12.6 107 14.5
2009-03-02 17:51:34 51°15.378 2°51.547 111.6 12.7 109 14.3
2009-03-02 17:52:34 51°15.311 2°51.864 112 12.5 108 13.8
2009-03-02 17:53:34 51°15.257 2°52.184 108.9 12.5 106 13.3
2009-03-02 17:54:34 51°15.204 2°52.505 108.2 12.5 106 12.8
2009-03-02 17:55:34 51°15.147 2°52.822 109.1 12.3 106 12.4
2009-03-02 17:56:34 51°15.087 2°53.135 109.3 12.4 107 12.1
2009-03-02 17:57:34 51°15.031 2°53.451 106.9 12.3 105 11.7
2009-03-02 17:58:34 51°14.973 2°53.76 110.8 12.2 109 11.4
2009-03-02 17:59:34 51°14.875 2°54.026 127.7 11.4 126 11.3
2009-03-02 18:00:34 51°14.765 2°54.276 130.2 11.5 125 11.7
2009-03-02 18:01:34 51°14.65 2°54.513 132.7 11 127 12.1
2009-03-02 18:02:34 51°14.543 2°54.73 131.8 11.1 126 11.9
2009-03-02 18:03:34 51°14.418 2°54.963 133.8 11.6 132 12.2
2009-03-02 18:04:34 51°14.293 2°55.191 130.9 10.6 132 11.6
2009-03-02 18:05:34 51°14.189 2°55.355 142.3 7 143 -999
2009-03-02 18:06:34 51°14.108 2°55.429 157.5 5.3 156 11.4
2009-03-02 18:07:34 51°14.009 2°55.489 159.9 7.5 161 11.2
2009-03-02 18:08:34 51°13.884 2°55.572 153.5 8.4 153 11.2
2009-03-02 18:09:34 51°13.783 2°55.668 139.7 6 141 -999
2009-03-02 18:10:34 51°13.722 2°55.77 129.4 4.9 129 -999
2009-03-02 18:11:34 51°13.68 2°55.871 114 4.4 115 -999
2009-03-02 18:12:34 51°13.664 2°55.951 115.1 1.1 107 -999